Shawanga, Canada
Current Conditions -  °F | °C
As of 2:16 PM on Friday 21 Nov 2014 (Local Time) from CYQA Reporting Station
Light Snow Light Snow  
Wind Chill: 19°   Ceiling: 2800
Heat Index: 19°   Visibility: 5mi
Dew Point: 16°   Wind: 2mph
Humidity: 86%   Direction: NA
Pressure: 30.28"   Gusts: NA
Location:  45.52°N, 80.28°W
Report Text: CYQA 211916Z AUTO VRB02KT 5SM -SN SCT016 BKN028 BKN037 OVC055 M07/M09 A3028 RMK SLP275
Loading
Personal Weather Stations






























Interactive Weather Map New forecast layout! Learn more

10-Day Weather Forecast

Advertisements
Track Severe Weather on mobile